createdAt,value
2018-08-20T00:00:25.686Z,0
2018-08-20T00:01:25.405Z,0
2018-08-20T00:02:25.406Z,0
2018-08-20T00:03:25.928Z,0
2018-08-20T00:04:25.958Z,0
2018-08-20T00:05:25.702Z,0
2018-08-20T00:06:25.911Z,0
2018-08-20T00:07:25.970Z,0
2018-08-20T00:08:25.935Z,0
2018-08-20T00:09:26.190Z,0
2018-08-20T00:10:25.692Z,0
2018-08-20T00:11:25.928Z,0
2018-08-20T00:12:25.944Z,0
2018-08-20T00:13:25.949Z,0
2018-08-20T00:14:26.014Z,0
2018-08-20T00:15:25.956Z,0
2018-08-20T00:16:25.445Z,0
2018-08-20T00:17:25.704Z,0
2018-08-20T00:18:26.228Z,0
2018-08-20T00:19:25.697Z,0
2018-08-20T00:20:25.739Z,0
2018-08-20T00:21:25.718Z,0
2018-08-20T00:22:25.972Z,0
2018-08-20T00:23:25.960Z,0
2018-08-20T00:24:25.956Z,0
2018-08-20T00:25:26.011Z,0
2018-08-20T00:26:25.979Z,0
2018-08-20T00:27:25.709Z,0
2018-08-20T00:28:26.226Z,0
2018-08-20T00:29:25.975Z,0
2018-08-20T00:30:26.255Z,0
2018-08-20T00:31:26.225Z,0
2018-08-20T00:32:26.224Z,0
2018-08-20T00:33:25.722Z,0
2018-08-20T00:34:25.971Z,0
2018-08-20T00:35:25.712Z,0
2018-08-20T00:36:26.247Z,0
2018-08-20T00:37:25.985Z,0
2018-08-20T00:38:25.988Z,0
2018-08-20T00:39:25.985Z,0
2018-08-20T00:40:26.059Z,0
2018-08-20T00:41:26.017Z,0
2018-08-20T00:42:25.985Z,0
2018-08-20T00:43:26.019Z,0
2018-08-20T00:44:25.768Z,0
2018-08-20T00:45:25.737Z,0
2018-08-20T00:46:26.264Z,0
2018-08-20T00:47:26.023Z,0
2018-08-20T00:48:25.777Z,0
2018-08-20T00:49:26.264Z,0
2018-08-20T00:50:26.037Z,0
2018-08-20T00:51:26.017Z,0
2018-08-20T00:52:25.766Z,0
2018-08-20T00:53:25.507Z,0
2018-08-20T00:54:26.026Z,0
2018-08-20T00:55:26.346Z,0
2018-08-20T00:56:26.281Z,0
2018-08-20T00:57:25.777Z,0
2018-08-20T00:58:26.018Z,0
2018-08-20T00:59:25.547Z,0
2018-08-20T01:00:25.848Z,0
2018-08-20T01:01:26.022Z,0
2018-08-20T01:02:25.791Z,0
2018-08-20T01:03:26.304Z,0
2018-08-20T01:04:25.773Z,0
2018-08-20T01:05:26.122Z,0
2018-08-20T01:06:26.063Z,0
2018-08-20T01:07:26.022Z,0
2018-08-20T01:08:25.772Z,0
2018-08-20T01:09:26.038Z,0
2018-08-20T01:10:26.321Z,0
2018-08-20T01:11:25.561Z,0
2018-08-20T01:12:26.035Z,0
2018-08-20T01:13:26.038Z,0
2018-08-20T01:14:26.039Z,0
2018-08-20T01:15:26.041Z,0
2018-08-20T01:16:25.808Z,0
2018-08-20T01:17:26.067Z,0
2018-08-20T01:18:25.830Z,0
2018-08-20T01:19:26.063Z,0
2018-08-20T01:20:25.830Z,0
2018-08-20T01:21:25.792Z,0
2018-08-20T01:22:26.070Z,0
2018-08-20T01:23:25.819Z,0
2018-08-20T01:24:26.086Z,0
2018-08-20T01:25:26.363Z,0
2018-08-20T01:26:26.320Z,0
2018-08-20T01:27:26.089Z,0
2018-08-20T01:28:26.320Z,0
2018-08-20T01:29:25.557Z,0
2018-08-20T01:30:26.316Z,0
2018-08-20T01:31:26.083Z,0
2018-08-20T01:32:25.830Z,0
2018-08-20T01:33:25.856Z,0
2018-08-20T01:34:25.595Z,0
2018-08-20T01:35:26.140Z,0
2018-08-20T01:36:26.067Z,0
2018-08-20T01:37:26.344Z,0
2018-08-20T01:38:26.329Z,0
2018-08-20T01:39:26.098Z,0
2018-08-20T01:40:25.882Z,0
2018-08-20T01:41:25.584Z,0
2018-08-20T01:42:25.835Z,0
2018-08-20T01:43:26.086Z,0
2018-08-20T01:44:26.365Z,0
2018-08-20T01:45:25.949Z,0
2018-08-20T01:46:26.105Z,0
2018-08-20T01:47:26.351Z,0
2018-08-20T01:48:25.586Z,0
2018-08-20T01:49:26.367Z,0
2018-08-20T01:50:26.379Z,0
2018-08-20T01:51:26.361Z,0
2018-08-20T01:52:25.848Z,0
2018-08-20T01:53:26.117Z,0
2018-08-20T01:54:25.844Z,0
2018-08-20T01:55:26.392Z,0
2018-08-20T01:56:26.126Z,0
2018-08-20T01:57:26.126Z,0
2018-08-20T01:58:26.367Z,0
2018-08-20T01:59:25.862Z,0
2018-08-20T02:00:26.115Z,0
2018-08-20T02:01:26.363Z,0
2018-08-20T02:02:26.371Z,0
2018-08-20T02:03:26.144Z,0
2018-08-20T02:04:26.398Z,0
2018-08-20T02:05:25.937Z,0
2018-08-20T02:06:26.373Z,0
2018-08-20T02:07:25.867Z,0
2018-08-20T02:08:26.121Z,0
2018-08-20T02:09:25.867Z,0
2018-08-20T02:10:26.439Z,0
2018-08-20T02:11:25.876Z,0
2018-08-20T02:12:26.376Z,0
2018-08-20T02:13:26.127Z,0
2018-08-20T02:14:26.377Z,0
2018-08-20T02:15:26.135Z,0
2018-08-20T02:16:26.375Z,0
2018-08-20T02:17:26.401Z,0
2018-08-20T02:18:26.130Z,0
2018-08-20T02:19:26.137Z,0
2018-08-20T02:20:26.428Z,0
2018-08-20T02:21:26.395Z,0
2018-08-20T02:22:26.394Z,0
2018-08-20T02:23:26.137Z,0
2018-08-20T02:24:26.400Z,0
2018-08-20T02:25:26.155Z,0
2018-08-20T02:26:26.399Z,0
2018-08-20T02:27:26.152Z,0
2018-08-20T02:28:26.140Z,0
2018-08-20T02:29:26.143Z,0
2018-08-20T02:30:26.161Z,0
2018-08-20T02:31:26.148Z,0
2018-08-20T02:32:26.147Z,0
2018-08-20T02:33:26.136Z,0
2018-08-20T02:34:26.406Z,0
2018-08-20T02:35:26.258Z,0
2018-08-20T02:36:26.158Z,0
2018-08-20T02:37:25.899Z,0
2018-08-20T02:38:26.427Z,0
2018-08-20T02:39:26.160Z,0
2018-08-20T02:40:26.249Z,0
2018-08-20T02:41:26.409Z,0
2018-08-20T02:42:26.415Z,0
2018-08-20T02:43:26.431Z,0
2018-08-20T02:44:26.164Z,0
2018-08-20T02:45:26.285Z,0
2018-08-20T02:46:26.196Z,0
2018-08-20T02:47:26.172Z,0
2018-08-20T02:48:26.465Z,0
2018-08-20T02:49:25.913Z,0
2018-08-20T02:50:26.499Z,0
2018-08-20T02:51:26.439Z,0
2018-08-20T02:52:26.435Z,0
2018-08-20T02:53:26.439Z,0
2018-08-20T02:54:26.205Z,0
2018-08-20T02:55:25.970Z,0
2018-08-20T02:56:26.437Z,0
2018-08-20T02:57:26.185Z,0
2018-08-20T02:58:26.437Z,0
2018-08-20T02:59:25.933Z,0
2018-08-20T03:00:26.229Z,0
2018-08-20T03:01:26.187Z,0
2018-08-20T03:02:25.948Z,0
2018-08-20T03:03:25.941Z,0
2018-08-20T03:04:26.451Z,0
2018-08-20T03:05:26.185Z,0
2018-08-20T03:06:26.188Z,0
2018-08-20T03:07:25.926Z,0
2018-08-20T03:08:26.218Z,0
2018-08-20T03:09:26.512Z,0
2018-08-20T03:10:26.537Z,0
2018-08-20T03:11:26.189Z,0
2018-08-20T03:12:26.199Z,0
2018-08-20T03:13:26.193Z,0
2018-08-20T03:14:26.560Z,0
2018-08-20T03:15:26.247Z,0
2018-08-20T03:16:26.358Z,0
2018-08-20T03:17:26.309Z,0
2018-08-20T03:18:25.692Z,0
2018-08-20T03:19:26.211Z,0
2018-08-20T03:20:26.270Z,0
2018-08-20T03:21:26.455Z,0
2018-08-20T03:22:26.469Z,0
2018-08-20T03:23:26.466Z,0
2018-08-20T03:24:26.220Z,0
2018-08-20T03:25:26.277Z,0
2018-08-20T03:26:26.212Z,0
2018-08-20T03:27:26.464Z,0
2018-08-20T03:28:25.954Z,0
2018-08-20T03:29:26.470Z,0
2018-08-20T03:30:25.978Z,0
2018-08-20T03:31:25.992Z,0
2018-08-20T03:32:26.236Z,0
2018-08-20T03:33:26.230Z,0
2018-08-20T03:34:26.211Z,0
2018-08-20T03:35:26.491Z,0
2018-08-20T03:36:25.979Z,0
2018-08-20T03:37:26.490Z,0
2018-08-20T03:38:26.226Z,0
2018-08-20T03:39:26.235Z,0
2018-08-20T03:40:26.014Z,0
2018-08-20T03:41:26.236Z,0
2018-08-20T03:42:26.242Z,0
2018-08-20T03:43:26.019Z,0
2018-08-20T03:44:26.546Z,0
2018-08-20T03:45:25.978Z,4
2018-08-20T03:46:26.245Z,4
2018-08-20T03:47:26.494Z,4
2018-08-20T03:48:26.254Z,0
2018-08-20T03:49:26.238Z,4
2018-08-20T03:50:26.350Z,4
2018-08-20T03:51:26.234Z,0
2018-08-20T03:52:25.731Z,4
2018-08-20T03:53:25.994Z,4
2018-08-20T03:54:26.251Z,8
2018-08-20T03:55:25.725Z,8
2018-08-20T03:56:25.994Z,8
2018-08-20T03:57:26.265Z,8
2018-08-20T03:58:26.257Z,12
2018-08-20T03:59:26.255Z,12
2018-08-20T04:00:26.263Z,16
2018-08-20T04:01:26.003Z,16
2018-08-20T04:02:27.859Z,20
2018-08-20T04:03:26.252Z,24
2018-08-20T04:04:26.002Z,28
2018-08-20T04:05:26.252Z,32
2018-08-20T04:06:26.256Z,36
2018-08-20T04:07:26.009Z,40
2018-08-20T04:08:26.252Z,48
2018-08-20T04:09:26.003Z,56
2018-08-20T04:10:26.041Z,64
2018-08-20T04:11:26.273Z,72
2018-08-20T04:12:26.520Z,80
2018-08-20T04:13:26.294Z,92
2018-08-20T04:14:26.512Z,108
2018-08-20T04:15:26.090Z,120
2018-08-20T04:16:26.252Z,136
2018-08-20T04:17:26.264Z,152
2018-08-20T04:18:26.514Z,164
2018-08-20T04:19:26.266Z,184
2018-08-20T04:20:26.324Z,200
2018-08-20T04:21:26.000Z,220
2018-08-20T04:22:26.293Z,244
2018-08-20T04:23:26.283Z,268
2018-08-20T04:24:26.048Z,292
2018-08-20T04:25:26.293Z,320
2018-08-20T04:26:26.543Z,348
2018-08-20T04:27:27.092Z,380
2018-08-20T04:28:26.344Z,412
2018-08-20T04:29:26.040Z,444
2018-08-20T04:30:26.565Z,476
2018-08-20T04:31:26.037Z,516
2018-08-20T04:32:27.071Z,552
2018-08-20T04:33:26.284Z,588
2018-08-20T04:34:26.555Z,632
2018-08-20T04:35:26.073Z,672
2018-08-20T04:36:26.831Z,716
2018-08-20T04:37:26.273Z,760
2018-08-20T04:38:26.298Z,804
2018-08-20T04:39:26.547Z,848
2018-08-20T04:40:26.582Z,896
2018-08-20T04:41:26.562Z,940
2018-08-20T04:42:26.622Z,992
2018-08-20T04:43:26.043Z,1040
2018-08-20T04:44:26.285Z,1092
2018-08-20T04:45:26.054Z,1144
2018-08-20T04:46:26.367Z,1196
2018-08-20T04:47:26.304Z,1244
2018-08-20T04:48:26.317Z,1300
2018-08-20T04:49:26.324Z,1356
2018-08-20T04:50:27.345Z,1408
2018-08-20T04:51:26.886Z,1464
2018-08-20T04:52:26.033Z,1552
2018-08-20T04:53:26.061Z,1792
2018-08-20T04:54:26.319Z,1976
2018-08-20T04:55:26.313Z,2280
2018-08-20T04:56:26.569Z,2604
2018-08-20T04:57:26.312Z,2716
2018-08-20T04:58:26.295Z,2812
2018-08-20T04:59:26.046Z,2932
2018-08-20T05:00:26.048Z,3072
2018-08-20T05:01:26.312Z,3212
2018-08-20T05:02:26.057Z,3308
2018-08-20T05:03:26.837Z,3432
2018-08-20T05:04:26.098Z,3468
2018-08-20T05:05:26.318Z,3380
2018-08-20T05:06:25.804Z,3232
2018-08-20T05:07:26.323Z,3144
2018-08-20T05:08:26.322Z,3092
2018-08-20T05:09:26.332Z,3188
2018-08-20T05:10:26.395Z,3488
2018-08-20T05:11:26.066Z,3876
2018-08-20T05:12:26.081Z,4196
2018-08-20T05:13:26.333Z,4480
2018-08-20T05:14:26.433Z,4736
2018-08-20T05:15:26.650Z,4908
2018-08-20T05:16:26.089Z,4992
2018-08-20T05:17:26.347Z,5036
2018-08-20T05:18:26.143Z,5040
2018-08-20T05:19:26.086Z,4940
2018-08-20T05:20:26.629Z,4740
2018-08-20T05:21:26.103Z,4380
2018-08-20T05:22:26.375Z,4024
2018-08-20T05:23:26.375Z,3800
2018-08-20T05:24:26.360Z,3664
2018-08-20T05:25:25.940Z,3612
2018-08-20T05:26:26.634Z,3612
2018-08-20T05:27:26.378Z,3656
2018-08-20T05:28:26.649Z,3720
2018-08-20T05:29:26.648Z,3804
2018-08-20T05:30:25.932Z,3900
2018-08-20T05:31:26.396Z,4012
2018-08-20T05:32:26.689Z,4108
2018-08-20T05:33:26.403Z,4188
2018-08-20T05:34:26.163Z,4272
2018-08-20T05:35:26.704Z,4372
2018-08-20T05:36:26.675Z,4496
2018-08-20T05:37:26.435Z,4664
2018-08-20T05:38:26.432Z,4860
2018-08-20T05:39:26.435Z,5108
2018-08-20T05:40:26.662Z,5448
2018-08-20T05:41:26.151Z,5876
2018-08-20T05:42:26.415Z,6404
2018-08-20T05:43:26.678Z,6856
2018-08-20T05:44:26.166Z,7208
2018-08-20T05:45:26.002Z,7544
2018-08-20T05:46:26.442Z,7816
2018-08-20T05:47:26.183Z,7736
2018-08-20T05:48:26.182Z,7280
2018-08-20T05:49:26.700Z,6752
2018-08-20T05:50:26.179Z,6444
2018-08-20T05:51:26.438Z,6288
2018-08-20T05:52:26.586Z,6328
2018-08-20T05:53:25.941Z,6548
2018-08-20T05:54:25.939Z,6916
2018-08-20T05:55:26.546Z,7488
2018-08-20T05:56:26.197Z,8140
2018-08-20T05:57:26.221Z,8752
2018-08-20T05:58:26.729Z,9236
2018-08-20T05:59:26.821Z,9608
2018-08-20T06:00:26.536Z,9896
2018-08-20T06:01:26.229Z,10072
2018-08-20T06:02:26.761Z,10232
2018-08-20T06:03:26.484Z,10344
2018-08-20T06:04:26.756Z,10404
2018-08-20T06:05:26.647Z,10464
2018-08-20T06:06:25.987Z,10408
2018-08-20T06:07:26.254Z,10148
2018-08-20T06:08:26.777Z,9756
2018-08-20T06:09:26.265Z,9304
2018-08-20T06:10:26.528Z,8856
2018-08-20T06:11:26.540Z,8660
2018-08-20T06:12:26.527Z,8740
2018-08-20T06:13:26.283Z,8836
2018-08-20T06:14:26.020Z,9156
2018-08-20T06:15:27.359Z,9436
2018-08-20T06:16:26.803Z,9544
2018-08-20T06:17:26.058Z,9556
2018-08-20T06:18:26.044Z,9528
2018-08-20T06:19:26.594Z,9576
2018-08-20T06:20:26.295Z,9816
2018-08-20T06:21:26.311Z,10192
2018-08-20T06:22:26.361Z,10496
2018-08-20T06:23:26.577Z,10744
2018-08-20T06:24:26.335Z,10944
2018-08-20T06:25:26.588Z,11148
2018-08-20T06:26:26.861Z,11368
2018-08-20T06:27:26.883Z,11500
2018-08-20T06:28:26.374Z,11584
2018-08-20T06:29:26.614Z,11668
2018-08-20T06:30:26.622Z,11728
2018-08-20T06:31:26.637Z,11732
2018-08-20T06:32:26.379Z,11744
2018-08-20T06:33:26.625Z,11712
2018-08-20T06:34:26.407Z,11736
2018-08-20T06:35:26.390Z,11724
2018-08-20T06:36:26.898Z,11748
2018-08-20T06:37:26.644Z,11812
2018-08-20T06:38:26.678Z,11836
2018-08-20T06:39:26.651Z,11940
2018-08-20T06:40:26.928Z,11936
2018-08-20T06:41:26.703Z,11984
2018-08-20T06:42:26.193Z,11988
2018-08-20T06:43:26.701Z,12048
2018-08-20T06:44:26.988Z,12148
2018-08-20T06:45:26.537Z,12204
2018-08-20T06:46:26.711Z,12212
2018-08-20T06:47:26.466Z,12244
2018-08-20T06:48:26.470Z,12468
2018-08-20T06:49:26.467Z,12948
2018-08-20T06:50:26.748Z,12740
2018-08-20T06:51:26.772Z,13132
2018-08-20T06:52:26.745Z,12812
2018-08-20T06:53:26.759Z,12584
2018-08-20T06:54:27.107Z,12544
2018-08-20T06:55:26.875Z,12556
2018-08-20T06:56:26.784Z,12528
2018-08-20T06:57:26.775Z,12580
2018-08-20T06:58:26.533Z,12624
2018-08-20T06:59:26.811Z,12664
2018-08-20T07:00:26.415Z,12696
2018-08-20T07:01:27.081Z,12680
2018-08-20T07:02:26.833Z,12720
2018-08-20T07:03:26.318Z,12776
2018-08-20T07:04:26.860Z,12856
2018-08-20T07:05:26.850Z,12908
2018-08-20T07:06:27.113Z,12904
2018-08-20T07:07:26.616Z,12912
2018-08-20T07:08:27.135Z,12916
2018-08-20T07:09:26.882Z,12924
2018-08-20T07:10:27.141Z,12908
2018-08-20T07:11:26.640Z,12912
2018-08-20T07:12:26.641Z,12908
2018-08-20T07:13:26.909Z,12904
2018-08-20T07:14:27.171Z,12948
2018-08-20T07:15:27.224Z,12964
2018-08-20T07:16:26.930Z,12920
2018-08-20T07:17:27.028Z,12932
2018-08-20T07:18:26.960Z,12912
2018-08-20T07:19:26.982Z,12868
2018-08-20T07:20:27.049Z,12876
2018-08-20T07:21:27.225Z,12888
2018-08-20T07:22:27.234Z,12892
2018-08-20T07:23:27.523Z,12864
2018-08-20T07:24:26.727Z,12840
2018-08-20T07:25:26.753Z,12808
2018-08-20T07:26:27.271Z,12764
2018-08-20T07:27:27.033Z,12728
2018-08-20T07:28:27.277Z,12692
2018-08-20T07:29:27.050Z,12456
2018-08-20T07:30:26.835Z,11636
2018-08-20T07:31:27.073Z,12656
2018-08-20T07:32:26.802Z,11884
2018-08-20T07:33:27.079Z,10748
2018-08-20T07:34:27.081Z,9588
2018-08-20T07:35:26.881Z,8892
2018-08-20T07:36:27.368Z,8576
2018-08-20T07:37:27.117Z,8440
2018-08-20T07:38:27.105Z,8364
2018-08-20T07:39:26.860Z,8260
2018-08-20T07:40:27.230Z,8308
2018-08-20T07:41:27.391Z,8524
2018-08-20T07:42:27.251Z,9116
2018-08-20T07:43:26.629Z,10228
2018-08-20T07:44:26.901Z,11036
2018-08-20T07:45:27.510Z,11320
2018-08-20T07:46:27.432Z,11316
2018-08-20T07:47:26.920Z,11284
2018-08-20T07:48:26.915Z,10972
2018-08-20T07:49:27.458Z,10484
2018-08-20T07:50:27.288Z,10496
2018-08-20T07:51:26.938Z,10796
2018-08-20T07:52:27.235Z,10936
2018-08-20T07:53:27.475Z,11000
2018-08-20T07:54:26.963Z,11104
2018-08-20T07:55:27.561Z,11232
2018-08-20T07:56:26.991Z,11336
2018-08-20T07:57:27.498Z,11456
2018-08-20T07:58:27.040Z,11444
2018-08-20T07:59:27.259Z,11292
2018-08-20T08:00:27.326Z,11240
2018-08-20T08:01:27.301Z,11392
2018-08-20T08:02:26.777Z,11360
2018-08-20T08:03:27.302Z,11376
2018-08-20T08:04:27.546Z,11308
2018-08-20T08:05:27.667Z,11316
2018-08-20T08:06:27.315Z,11328
2018-08-20T08:07:27.070Z,11328
2018-08-20T08:08:27.323Z,11268
2018-08-20T08:09:27.367Z,11184
2018-08-20T08:10:27.436Z,11108
2018-08-20T08:11:27.127Z,11008
2018-08-20T08:12:27.378Z,11028
2018-08-20T08:13:27.381Z,11032
2018-08-20T08:14:27.753Z,11028
2018-08-20T08:15:27.451Z,11068
2018-08-20T08:16:27.417Z,11084
2018-08-20T08:17:27.172Z,10996
2018-08-20T08:18:27.437Z,10984
2018-08-20T08:19:27.432Z,10928
2018-08-20T08:20:27.185Z,10884
2018-08-20T08:21:27.723Z,10848
2018-08-20T08:22:27.489Z,10800
2018-08-20T08:23:27.222Z,10752
2018-08-20T08:24:27.472Z,10628
2018-08-20T08:25:27.569Z,10716
2018-08-20T08:26:27.566Z,10708
2018-08-20T08:27:27.240Z,10668
2018-08-20T08:28:27.754Z,10692
2018-08-20T08:29:27.771Z,10656
2018-08-20T08:30:27.596Z,10608
2018-08-20T08:31:27.773Z,10496
2018-08-20T08:32:27.790Z,10484
2018-08-20T08:33:27.548Z,10440
2018-08-20T08:34:28.866Z,10404
2018-08-20T08:35:27.623Z,10356
2018-08-20T08:36:27.302Z,10272
2018-08-20T08:37:27.581Z,10204
2018-08-20T08:38:27.848Z,10180
2018-08-20T08:39:27.626Z,10148
2018-08-20T08:40:27.938Z,10096
2018-08-20T08:41:27.605Z,10132
2018-08-20T08:42:27.869Z,10144
2018-08-20T08:43:27.630Z,10164
2018-08-20T08:44:27.124Z,10148
2018-08-20T08:45:27.704Z,10104
2018-08-20T08:46:27.643Z,10096
2018-08-20T08:47:27.915Z,10036
2018-08-20T08:48:27.930Z,9984
2018-08-20T08:49:27.940Z,9992
2018-08-20T08:50:27.708Z,9964
2018-08-20T08:51:27.419Z,9884
2018-08-20T08:52:27.709Z,9848
2018-08-20T08:53:27.726Z,9828
2018-08-20T08:54:27.719Z,9848
2018-08-20T08:55:27.986Z,9820
2018-08-20T08:56:27.980Z,9780
2018-08-20T08:57:27.992Z,9708
2018-08-20T08:58:27.496Z,9736
2018-08-20T08:59:27.742Z,9740
2018-08-20T09:00:27.959Z,9676
2018-08-20T09:01:27.760Z,9700
2018-08-20T09:02:27.758Z,9636
2018-08-20T09:03:27.529Z,9780
2018-08-20T09:04:29.529Z,9836
2018-08-20T09:05:27.560Z,9848
2018-08-20T09:06:27.784Z,9868
2018-08-20T09:07:27.546Z,9872
2018-08-20T09:08:27.806Z,9860
2018-08-20T09:09:28.052Z,9848
2018-08-20T09:10:27.813Z,9852
2018-08-20T09:11:27.807Z,9868
2018-08-20T09:12:27.840Z,9824
2018-08-20T09:13:27.824Z,9796
2018-08-20T09:14:28.140Z,9888
2018-08-20T09:15:28.151Z,9836
2018-08-20T09:16:28.116Z,9796
2018-08-20T09:17:27.859Z,9800
2018-08-20T09:18:27.882Z,9816
2018-08-20T09:19:27.881Z,9888
2018-08-20T09:20:28.165Z,9868
2018-08-20T09:21:27.625Z,9836
2018-08-20T09:22:27.884Z,9868
2018-08-20T09:23:28.143Z,9888
2018-08-20T09:24:27.656Z,9908
2018-08-20T09:25:27.911Z,9888
2018-08-20T09:26:28.156Z,9920
2018-08-20T09:27:28.160Z,9920
2018-08-20T09:28:28.204Z,9916
2018-08-20T09:29:27.679Z,9892
2018-08-20T09:30:28.267Z,9868
2018-08-20T09:31:28.200Z,9820
2018-08-20T09:32:28.508Z,9868
2018-08-20T09:33:27.942Z,9840
2018-08-20T09:34:27.961Z,9824
2018-08-20T09:35:28.234Z,9792
2018-08-20T09:36:28.221Z,9756
2018-08-20T09:37:28.246Z,9652
2018-08-20T09:38:28.653Z,9456
2018-08-20T09:39:27.993Z,9548
2018-08-20T09:40:28.083Z,9560
2018-08-20T09:41:27.732Z,9496
2018-08-20T09:42:28.258Z,9464
2018-08-20T09:43:28.259Z,9412
2018-08-20T09:44:28.021Z,9388
2018-08-20T09:45:28.269Z,9388
2018-08-20T09:46:27.493Z,9320
2018-08-20T09:47:27.759Z,9248
2018-08-20T09:48:28.282Z,9232
2018-08-20T09:49:28.287Z,9336
2018-08-20T09:50:27.890Z,9248
2018-08-20T09:51:28.293Z,9228
2018-08-20T09:52:28.277Z,9120
2018-08-20T09:53:28.278Z,9064
2018-08-20T09:54:28.324Z,9008
2018-08-20T09:55:28.410Z,8944
2018-08-20T09:56:28.066Z,8900
2018-08-20T09:57:28.334Z,8832
2018-08-20T09:58:28.091Z,8768
2018-08-20T09:59:28.357Z,8712
2018-08-20T10:00:28.132Z,8676
2018-08-20T10:01:28.082Z,8612
2018-08-20T10:02:28.347Z,8644
2018-08-20T10:03:27.850Z,8796
2018-08-20T10:04:28.115Z,8820
2018-08-20T10:05:28.630Z,8700
2018-08-20T10:06:28.110Z,8568
2018-08-20T10:07:28.727Z,8500
2018-08-20T10:08:28.384Z,8480
2018-08-20T10:09:28.165Z,8476
2018-08-20T10:10:27.996Z,8428
2018-08-20T10:11:28.160Z,8432
2018-08-20T10:12:28.392Z,8480
2018-08-20T10:13:27.632Z,8480
2018-08-20T10:14:28.454Z,8500
2018-08-20T10:15:28.152Z,8412
2018-08-20T10:16:28.419Z,8340
2018-08-20T10:17:28.420Z,8372
2018-08-20T10:18:28.334Z,8328
2018-08-20T10:19:28.197Z,8292
2018-08-20T10:20:28.191Z,8256
2018-08-20T10:21:28.442Z,8228
2018-08-20T10:22:28.463Z,8232
2018-08-20T10:23:28.211Z,8264
2018-08-20T10:24:28.227Z,8300
2018-08-20T10:25:28.226Z,8288
2018-08-20T10:26:28.229Z,8204
2018-08-20T10:27:28.462Z,8204
2018-08-20T10:28:28.477Z,8032
2018-08-20T10:29:27.970Z,8056
2018-08-20T10:30:28.252Z,7076
2018-08-20T10:31:27.971Z,7656
2018-08-20T10:32:27.747Z,8104
2018-08-20T10:33:27.986Z,8096
2018-08-20T10:34:28.283Z,8072
2018-08-20T10:35:28.312Z,8088
2018-08-20T10:36:28.280Z,8120
2018-08-20T10:37:28.360Z,8200
2018-08-20T10:38:28.286Z,8200
2018-08-20T10:39:28.051Z,8156
2018-08-20T10:40:28.138Z,8124
2018-08-20T10:41:28.312Z,8112
2018-08-20T10:42:28.310Z,8084
2018-08-20T10:43:28.293Z,8076
2018-08-20T10:44:28.049Z,8064
2018-08-20T10:45:28.567Z,8064
2018-08-20T10:46:28.568Z,8056
2018-08-20T10:47:28.318Z,8084
2018-08-20T10:48:28.618Z,8052
2018-08-20T10:49:28.601Z,7988
2018-08-20T10:50:29.165Z,7920
2018-08-20T10:51:28.098Z,7888
2018-08-20T10:52:28.100Z,7852
2018-08-20T10:53:27.864Z,7808
2018-08-20T10:54:28.107Z,7816
2018-08-20T10:55:28.151Z,7832
2018-08-20T10:56:28.612Z,7868
2018-08-20T10:57:28.369Z,7844
2018-08-20T10:58:28.634Z,7828
2018-08-20T10:59:28.113Z,7780
2018-08-20T11:00:28.221Z,7736
2018-08-20T11:01:28.148Z,7712
2018-08-20T11:02:28.416Z,7724
2018-08-20T11:03:28.665Z,7692
2018-08-20T11:04:28.153Z,7692
2018-08-20T11:05:28.479Z,7704
2018-08-20T11:06:28.204Z,7632
2018-08-20T11:07:28.170Z,7568
2018-08-20T11:08:28.196Z,7528
2018-08-20T11:09:28.173Z,7516
2018-08-20T11:10:28.826Z,7472
2018-08-20T11:11:28.454Z,7448
2018-08-20T11:12:28.173Z,7444
2018-08-20T11:13:28.197Z,7448
2018-08-20T11:14:28.679Z,7384
2018-08-20T11:15:28.589Z,7344
2018-08-20T11:16:28.504Z,7320
2018-08-20T11:17:28.506Z,7288
2018-08-20T11:18:28.806Z,7268
2018-08-20T11:19:28.485Z,7240
2018-08-20T11:20:28.825Z,7192
2018-08-20T11:21:28.546Z,7208
2018-08-20T11:22:28.503Z,7196
2018-08-20T11:23:28.834Z,7172
2018-08-20T11:24:28.269Z,7168
2018-08-20T11:25:28.310Z,7168
2018-08-20T11:26:28.534Z,7180
2018-08-20T11:27:28.583Z,7096
2018-08-20T11:28:28.276Z,5952
2018-08-20T11:29:28.820Z,7028
2018-08-20T11:30:28.944Z,7056
2018-08-20T11:31:28.552Z,7028
2018-08-20T11:32:28.304Z,7004
2018-08-20T11:33:28.818Z,6956
2018-08-20T11:34:28.311Z,6936
2018-08-20T11:35:28.826Z,6916
2018-08-20T11:36:28.593Z,6896
2018-08-20T11:37:28.585Z,6900
2018-08-20T11:38:28.336Z,6888
2018-08-20T11:39:28.871Z,6900
2018-08-20T11:40:28.660Z,6880
2018-08-20T11:41:28.100Z,6832
2018-08-20T11:42:28.348Z,6824
2018-08-20T11:43:29.019Z,6828
2018-08-20T11:44:28.368Z,6824
2018-08-20T11:45:28.152Z,6804
2018-08-20T11:46:28.645Z,6796
2018-08-20T11:47:28.369Z,6800
2018-08-20T11:48:28.644Z,6804
2018-08-20T11:49:28.134Z,6800
2018-08-20T11:50:28.969Z,6796
2018-08-20T11:51:28.386Z,6792
2018-08-20T11:52:28.931Z,6780
2018-08-20T11:53:28.940Z,6796
2018-08-20T11:54:28.421Z,6792
2018-08-20T11:55:28.412Z,6776
2018-08-20T11:56:28.444Z,6780
2018-08-20T11:57:28.698Z,6756
2018-08-20T11:58:28.705Z,6708
2018-08-20T11:59:28.437Z,6700
2018-08-20T12:00:28.536Z,6692
2018-08-20T12:01:28.701Z,6672
2018-08-20T12:02:28.462Z,6716
2018-08-20T12:03:28.733Z,6724
2018-08-20T12:04:28.482Z,6732
2018-08-20T12:05:28.475Z,6732
2018-08-20T12:06:28.483Z,6724
2018-08-20T12:07:29.145Z,6716
2018-08-20T12:08:28.749Z,6708
2018-08-20T12:09:29.024Z,6704
2018-08-20T12:10:28.773Z,6688
2018-08-20T12:11:28.765Z,6656
2018-08-20T12:12:28.520Z,6628
2018-08-20T12:13:28.518Z,6584
2018-08-20T12:14:28.281Z,6560
2018-08-20T12:15:28.837Z,6548
2018-08-20T12:16:28.786Z,6532
2018-08-20T12:17:28.963Z,6532
2018-08-20T12:18:28.553Z,6552
2018-08-20T12:19:28.576Z,6540
2018-08-20T12:20:28.577Z,6528
2018-08-20T12:21:28.554Z,6516
2018-08-20T12:22:29.222Z,6508
2018-08-20T12:23:29.110Z,6472
2018-08-20T12:24:28.829Z,6448
2018-08-20T12:25:28.919Z,6448
2018-08-20T12:26:28.849Z,6408
2018-08-20T12:27:28.605Z,6396
2018-08-20T12:28:28.858Z,6364
2018-08-20T12:29:28.851Z,6372
2018-08-20T12:30:28.916Z,6356
2018-08-20T12:31:28.888Z,6352
2018-08-20T12:32:28.624Z,6336
2018-08-20T12:33:28.633Z,6312
2018-08-20T12:34:29.105Z,6292
2018-08-20T12:35:29.513Z,6288
2018-08-20T12:36:28.911Z,6260
2018-08-20T12:37:28.893Z,6244
2018-08-20T12:38:29.157Z,6252
2018-08-20T12:39:28.920Z,6228
2018-08-20T12:40:29.428Z,6204
2018-08-20T12:41:28.655Z,6188
2018-08-20T12:42:29.195Z,6168
2018-08-20T12:43:28.948Z,6168
2018-08-20T12:44:28.793Z,6140
2018-08-20T12:45:29.200Z,6128
2018-08-20T12:46:28.431Z,6132
2018-08-20T12:47:28.962Z,6104
2018-08-20T12:48:28.961Z,6104
2018-08-20T12:49:28.446Z,5160
2018-08-20T12:50:28.504Z,6084
2018-08-20T12:51:29.036Z,6028
2018-08-20T12:52:29.031Z,5960
2018-08-20T12:53:28.717Z,6024
2018-08-20T12:54:29.244Z,6032
2018-08-20T12:55:29.031Z,6068
2018-08-20T12:56:29.256Z,5884
2018-08-20T12:57:28.994Z,6000
2018-08-20T12:58:29.105Z,5540
2018-08-20T12:59:29.022Z,5948
2018-08-20T13:00:29.137Z,5940
2018-08-20T13:01:29.300Z,5944
2018-08-20T13:02:28.769Z,5928
2018-08-20T13:03:29.030Z,5928
2018-08-20T13:04:28.825Z,5920
2018-08-20T13:05:29.110Z,5840
2018-08-20T13:06:29.052Z,5824
2018-08-20T13:07:29.057Z,5820
2018-08-20T13:08:29.309Z,5824
2018-08-20T13:09:29.073Z,5820
2018-08-20T13:10:29.404Z,5812
2018-08-20T13:11:28.889Z,5824
2018-08-20T13:12:29.117Z,5832
2018-08-20T13:13:29.342Z,5852
2018-08-20T13:14:29.114Z,5828
2018-08-20T13:15:29.457Z,5800
2018-08-20T13:16:29.458Z,5816
2018-08-20T13:17:28.593Z,5804
2018-08-20T13:18:28.858Z,5808
2018-08-20T13:19:28.860Z,5808
2018-08-20T13:20:29.491Z,5780
2018-08-20T13:21:28.615Z,5764
2018-08-20T13:22:28.917Z,5788
2018-08-20T13:23:29.400Z,5796
2018-08-20T13:24:29.440Z,5796
2018-08-20T13:25:29.179Z,5792
2018-08-20T13:26:29.420Z,5652
2018-08-20T13:27:29.428Z,5744
2018-08-20T13:28:29.426Z,5668
2018-08-20T13:29:28.656Z,5772
2018-08-20T13:30:29.305Z,5764
2018-08-20T13:31:29.198Z,5756
2018-08-20T13:32:29.198Z,5756
2018-08-20T13:33:28.940Z,5764
2018-08-20T13:34:29.192Z,5772
2018-08-20T13:35:29.280Z,5760
2018-08-20T13:36:29.217Z,5776
2018-08-20T13:37:29.529Z,5776
2018-08-20T13:38:28.973Z,5796
2018-08-20T13:39:29.224Z,5780